Time;durP1;ratioP1;P1;durP2;ratioP2;P2;SDS_P1;SDS_P2;PMS_P1;PMS_P2;Temp;Humidity;BMP_temperature;BMP_pressure;BME280_temperature;BME280_humidity;BME280_pressure;Samples;Min_cycle;Max_cycle;Signal;HPM_P1;HPM_P2
2022/04/17 00:02:05;;;;;;;9.70;6.97;;;10.30;59.30;;;;;;5031086;28;20279;-39
2022/04/17 00:04:31;;;;;;;7.23;6.53;;;10.20;59.40;;;;;;5030293;28;20270;-39
2022/04/17 00:06:57;;;;;;;7.30;6.40;;;10.20;59.50;;;;;;5026408;28;20528;-38
2022/04/17 00:09:22;;;;;;;7.07;6.37;;;10.00;60.40;;;;;;5026689;28;20437;-35
2022/04/17 00:11:48;;;;;;;9.00;7.10;;;10.20;60.10;;;;;;5030232;28;20194;-40
2022/04/17 00:14:13;;;;;;;8.33;7.50;;;10.00;60.80;;;;;;5031127;28;20201;-41
2022/04/17 00:16:42;;;;;;;8.50;6.90;;;10.00;60.90;;;;;;5030794;28;20245;-39
2022/04/17 00:19:08;;;;;;;7.07;5.87;;;9.90;63.20;;;;;;5030749;28;20218;-37
2022/04/17 00:21:34;;;;;;;8.10;6.73;;;9.80;63.90;;;;;;5026808;28;20449;-39
2022/04/17 00:24:00;;;;;;;8.17;7.17;;;9.90;63.20;;;;;;5035147;28;20434;-39
2022/04/17 00:26:25;;;;;;;9.00;6.60;;;9.90;64.30;;;;;;5029158;28;20198;-37
2022/04/17 00:28:51;;;;;;;7.80;6.90;;;9.80;63.50;;;;;;5030870;28;20669;-39
2022/04/17 00:31:17;;;;;;;8.13;6.70;;;9.60;63.80;;;;;;5029931;28;20194;-37
2022/04/17 00:33:42;;;;;;;7.50;6.70;;;9.70;63.90;;;;;;5030619;28;20684;-40
2022/04/17 00:36:08;;;;;;;9.23;6.87;;;9.60;64.00;;;;;;5030593;28;20796;-41
2022/04/17 00:38:33;;;;;;;7.67;6.10;;;9.60;64.40;;;;;;5022864;28;20228;-40
2022/04/17 00:40:59;;;;;;;6.83;6.10;;;9.50;64.50;;;;;;5029720;28;20277;-37
2022/04/17 00:43:26;;;;;;;6.87;5.97;;;9.50;64.80;;;;;;5029049;28;20198;-34
2022/04/17 00:45:53;;;;;;;7.97;6.33;;;9.40;65.80;;;;;;5029183;28;20187;-37
2022/04/17 00:48:19;;;;;;;7.87;6.30;;;9.60;65.20;;;;;;5030203;28;20853;-38
2022/04/17 00:50:46;;;;;;;6.80;6.10;;;9.40;65.00;;;;;;5029709;28;20474;-38
2022/04/17 00:53:12;;;;;;;6.43;5.83;;;9.30;65.20;;;;;;5019558;28;20924;-37
2022/04/17 00:55:39;;;;;;;7.03;6.40;;;9.30;65.70;;;;;;5030172;28;21089;-38
2022/04/17 00:58:05;;;;;;;7.53;6.83;;;9.20;66.10;;;;;;5028524;28;20548;-40
2022/04/17 01:00:33;;;;;;;7.57;6.10;;;9.20;67.00;;;;;;5029478;28;20476;-39
2022/04/17 01:02:59;;;;;;;6.70;6.03;;;9.30;66.90;;;;;;5029925;28;20472;-39
2022/04/17 01:05:25;;;;;;;8.00;6.00;;;9.20;67.00;;;;;;5029143;28;20479;-38
2022/04/17 01:07:52;;;;;;;6.40;5.80;;;9.40;66.90;;;;;;5020529;28;20438;-40
2022/04/17 01:10:18;;;;;;;7.63;6.20;;;9.30;66.60;;;;;;5029272;28;21131;-40
2022/04/17 01:12:44;;;;;;;6.67;5.97;;;9.20;67.00;;;;;;5029838;28;20429;-38
2022/04/17 01:15:11;;;;;;;7.33;6.53;;;9.40;67.80;;;;;;5029829;28;20478;-38
2022/04/17 01:17:37;;;;;;;6.60;5.50;;;9.20;66.50;;;;;;5028609;28;20425;-40
2022/04/17 01:20:04;;;;;;;6.80;5.83;;;9.40;66.80;;;;;;5029416;28;20468;-38
2022/04/17 01:22:29;;;;;;;5.67;5.13;;;9.20;66.50;;;;;;5022720;28;20639;-36
2022/04/17 01:27:40;;;;;;;7.20;5.47;;;9.20;66.70;;;;;;5010438;28;20618;-38
2022/04/17 01:30:06;;;;;;;7.00;5.20;;;9.20;66.30;;;;;;5028674;28;20810;-40
2022/04/17 01:32:32;;;;;;;6.80;5.47;;;9.20;66.50;;;;;;5029721;28;20453;-40
2022/04/17 01:34:58;;;;;;;6.00;5.30;;;9.40;66.80;;;;;;5029279;28;20556;-39
2022/04/17 01:37:24;;;;;;;6.00;5.40;;;9.10;67.40;;;;;;5026472;28;20194;-39
2022/04/17 01:39:49;;;;;;;7.27;5.30;;;9.20;68.70;;;;;;5019450;28;20214;-38
2022/04/17 01:42:16;;;;;;;7.70;5.80;;;9.40;68.20;;;;;;5029394;28;20425;-41
2022/04/17 01:44:42;;;;;;;7.60;5.60;;;9.10;67.70;;;;;;5028748;28;20278;-38
2022/04/17 01:47:08;;;;;;;5.90;4.90;;;9.10;68.40;;;;;;5029333;28;20559;-41
2022/04/17 01:49:36;;;;;;;7.13;5.43;;;9.10;68.30;;;;;;5028969;28;20516;-40
2022/04/17 01:52:02;;;;;;;5.80;5.10;;;9.10;68.00;;;;;;5027863;28;21009;-38
2022/04/17 01:54:28;;;;;;;6.67;5.30;;;9.20;68.70;;;;;;5023364;28;20532;-40
2022/04/17 01:56:55;;;;;;;5.77;5.23;;;9.30;69.20;;;;;;5029009;28;20432;-38
2022/04/17 01:59:22;;;;;;;6.40;5.20;;;9.20;69.00;;;;;;5029077;28;20519;-39
2022/04/17 02:01:49;;;;;;;5.73;4.70;;;9.10;69.30;;;;;;5028686;28;20932;-38
2022/04/17 02:04:14;;;;;;;6.87;5.50;;;9.00;68.90;;;;;;5028414;28;20425;-39
2022/04/17 02:06:42;;;;;;;5.70;5.00;;;8.90;69.20;;;;;;5028967;28;20745;-38
2022/04/17 02:09:11;;;;;;;7.67;5.60;;;9.10;69.90;;;;;;5018823;28;20239;-41
2022/04/17 02:11:38;;;;;;;5.47;4.90;;;8.90;69.30;;;;;;5027871;28;20776;-40
2022/04/17 02:14:09;;;;;;;6.10;5.47;;;8.90;69.90;;;;;;5029253;28;20421;-40
2022/04/17 02:16:34;;;;;;;6.40;5.40;;;9.20;71.60;;;;;;5028794;28;20421;-37
2022/04/17 02:19:00;;;;;;;7.60;4.90;;;9.10;70.70;;;;;;5029092;28;20839;-38
2022/04/17 02:21:27;;;;;;;5.80;5.30;;;8.80;70.50;;;;;;5028121;28;20429;-38
2022/04/17 02:23:52;;;;;;;5.20;4.60;;;9.10;71.30;;;;;;5020735;28;20180;-41
2022/04/17 02:26:18;;;;;;;5.13;4.60;;;9.00;72.00;;;;;;5028525;28;20552;-40
2022/04/17 02:28:46;;;;;;;6.80;4.97;;;8.90;71.30;;;;;;5028862;28;20201;-38
2022/04/17 02:31:12;;;;;;;8.27;5.13;;;8.80;72.00;;;;;;5028115;28;20203;-38
2022/04/17 02:33:38;;;;;;;4.97;4.43;;;8.80;71.80;;;;;;5029094;28;20433;-38
2022/04/17 02:36:05;;;;;;;4.47;4.07;;;8.90;71.70;;;;;;5028585;28;20520;-40
2022/04/17 02:38:31;;;;;;;6.40;4.70;;;8.80;71.80;;;;;;5018148;28;20434;-40
2022/04/17 02:40:57;;;;;;;4.97;4.47;;;8.70;72.10;;;;;;5026257;28;20420;-41
2022/04/17 02:43:23;;;;;;;6.10;4.63;;;8.70;72.90;;;;;;5028725;28;20520;-38
2022/04/17 02:45:52;;;;;;;5.03;4.23;;;8.60;72.80;;;;;;5028804;28;20703;-39
2022/04/17 02:48:19;;;;;;;6.70;4.47;;;8.50;75.70;;;;;;5028639;28;20685;-39
2022/04/17 02:50:45;;;;;;;5.63;5.13;;;8.40;78.40;;;;;;5028151;28;20429;-40
2022/04/17 02:53:11;;;;;;;6.67;4.43;;;8.40;77.00;;;;;;5022096;28;20465;-41
2022/04/17 02:55:37;;;;;;;5.30;4.80;;;8.60;78.40;;;;;;5026619;28;20475;-34
2022/04/17 02:58:03;;;;;;;5.10;4.53;;;8.40;77.20;;;;;;5030814;28;20201;-41
2022/04/17 03:00:30;;;;;;;5.10;4.13;;;8.30;78.40;;;;;;5031723;28;20297;-39
2022/04/17 03:05:41;;;;;;;4.93;4.23;;;8.30;82.50;;;;;;5031486;28;20799;-37
2022/04/17 03:08:12;;;;;;;5.80;4.80;;;8.20;81.60;;;;;;5027556;28;20788;-38
2022/04/17 03:10:40;;;;;;;6.37;4.70;;;8.50;79.30;;;;;;5029291;28;21089;-40
2022/04/17 03:13:07;;;;;;;4.87;4.37;;;8.40;77.20;;;;;;5031980;28;20425;-41
2022/04/17 03:15:33;;;;;;;5.30;4.57;;;8.60;77.10;;;;;;5032254;28;20444;-41
2022/04/17 03:18:00;;;;;;;7.80;5.10;;;8.60;76.40;;;;;;5031930;28;20428;-38
2022/04/17 03:20:28;;;;;;;4.87;4.40;;;8.60;76.80;;;;;;5046359;28;20464;-41
2022/04/17 03:22:54;;;;;;;4.67;3.73;;;8.50;76.50;;;;;;5028327;28;20465;-38
2022/04/17 03:25:20;;;;;;;4.83;3.90;;;8.70;77.60;;;;;;5027986;28;20421;-39
2022/04/17 03:27:46;;;;;;;4.60;4.20;;;8.60;78.30;;;;;;5031907;28;20423;-40
2022/04/17 03:30:15;;;;;;;6.03;4.20;;;8.60;79.10;;;;;;5031339;28;20443;-40
2022/04/17 03:32:44;;;;;;;5.10;4.50;;;8.60;79.60;;;;;;5031726;28;20436;-35
2022/04/17 03:35:14;;;;;;;5.40;4.17;;;8.40;80.00;;;;;;5031411;28;20834;-38
2022/04/17 03:37:43;;;;;;;5.60;3.70;;;8.40;80.50;;;;;;5030269;28;20428;-40
2022/04/17 03:40:15;;;;;;;4.13;3.73;;;8.50;78.50;;;;;;5023472;28;20860;-40
2022/04/17 03:42:41;;;;;;;4.03;3.70;;;8.50;79.40;;;;;;5031596;28;20849;-39
2022/04/17 03:45:11;;;;;;;4.60;4.20;;;8.40;78.40;;;;;;5031630;28;20428;-40
2022/04/17 03:47:38;;;;;;;4.30;3.90;;;8.40;77.90;;;;;;5031321;28;20523;-37
2022/04/17 03:50:04;;;;;;;6.50;3.93;;;8.50;79.80;;;;;;5030907;28;20417;-38
2022/04/17 03:52:44;;;;;;;4.83;4.00;;;8.20;80.00;;;;;;5031426;28;20528;-40
2022/04/17 03:55:11;;;;;;;5.10;4.20;;;8.30;82.00;;;;;;5025489;28;20429;-39
2022/04/17 03:57:38;;;;;;;3.90;3.37;;;8.30;82.10;;;;;;5031247;28;20958;-38
2022/04/17 04:00:06;;;;;;;4.97;3.50;;;8.30;81.10;;;;;;5030176;28;20550;-40
2022/04/17 04:02:32;;;;;;;4.10;3.70;;;8.30;80.90;;;;;;5031361;28;20420;-39
2022/04/17 04:04:58;;;;;;;3.97;3.57;;;8.40;81.00;;;;;;5030291;28;20448;-35
2022/04/17 04:07:24;;;;;;;5.53;3.50;;;8.40;80.70;;;;;;5031137;28;20456;-35
2022/04/17 04:09:50;;;;;;;4.57;3.60;;;8.50;81.40;;;;;;5016329;28;20532;-40
2022/04/17 04:12:16;;;;;;;4.23;3.83;;;8.40;80.90;;;;;;5023896;28;20810;-38
2022/04/17 04:14:42;;;;;;;3.93;3.53;;;8.60;82.80;;;;;;5030810;28;20424;-40
2022/04/17 04:17:09;;;;;;;5.80;3.70;;;8.70;81.30;;;;;;5045977;28;20925;-41
2022/04/17 04:19:35;;;;;;;3.83;3.50;;;8.50;82.10;;;;;;5030497;28;20214;-40
2022/04/17 04:22:00;;;;;;;5.13;3.93;;;8.50;81.40;;;;;;5030848;28;20428;-37
2022/04/17 04:24:26;;;;;;;4.50;3.77;;;8.50;82.40;;;;;;5024434;28;20953;-40
2022/04/17 04:29:37;;;;;;;6.07;3.87;;;8.50;83.20;;;;;;5015741;28;20584;-40
2022/04/17 04:32:04;;;;;;;4.90;3.97;;;8.30;83.40;;;;;;5030342;28;20487;-39
2022/04/17 04:34:30;;;;;;;4.17;3.77;;;8.20;83.60;;;;;;5030472;28;20421;-40
2022/04/17 04:36:56;;;;;;;3.90;3.53;;;8.50;84.20;;;;;;5030601;28;20452;-39
2022/04/17 04:39:21;;;;;;;3.83;3.33;;;8.30;84.00;;;;;;5020414;28;20218;-40
2022/04/17 04:41:47;;;;;;;4.50;4.10;;;8.20;84.20;;;;;;5026506;28;20190;-39
2022/04/17 04:44:13;;;;;;;3.90;3.10;;;8.30;85.10;;;;;;5030661;28;20186;-40
2022/04/17 04:46:39;;;;;;;3.83;3.53;;;8.10;85.40;;;;;;5030391;28;20236;-40
2022/04/17 04:52:04;;;;;;;4.07;3.73;;;8.10;86.80;;;;;;5021694;28;20492;-40
2022/04/17 04:54:31;;;;;;;5.07;4.47;;;8.30;87.10;;;;;;5023052;28;20440;-38
2022/04/17 04:56:57;;;;;;;4.07;3.13;;;8.00;86.70;;;;;;5042006;28;20511;-34
2022/04/17 04:59:23;;;;;;;3.80;3.50;;;8.10;86.50;;;;;;5030136;28;20461;-34
2022/04/17 05:01:49;;;;;;;4.07;3.47;;;8.10;86.70;;;;;;5029433;28;20449;-41
2022/04/17 05:04:18;;;;;;;7.93;4.67;;;8.00;86.50;;;;;;5029184;28;20429;-38
2022/04/17 05:06:45;;;;;;;3.90;3.50;;;8.20;86.60;;;;;;5029933;28;20475;-37
2022/04/17 05:09:11;;;;;;;3.97;3.47;;;8.10;87.90;;;;;;5024614;28;20448;-38
2022/04/17 05:11:38;;;;;;;3.57;3.27;;;8.20;87.30;;;;;;5024304;28;20437;-35
2022/04/17 05:14:06;;;;;;;4.03;3.60;;;8.20;87.80;;;;;;5029842;28;20432;-37
2022/04/17 05:16:32;;;;;;;4.33;3.17;;;8.30;88.10;;;;;;5029858;28;20433;-41
2022/04/17 05:21:45;;;;;;;5.07;3.30;;;8.10;87.20;;;;;;5028726;28;20514;-37
2022/04/17 05:24:10;;;;;;;3.70;3.10;;;8.20;87.90;;;;;;5022798;28;20446;-38
2022/04/17 05:26:37;;;;;;;3.57;3.27;;;8.30;88.40;;;;;;5026120;28;20759;-37
2022/04/17 05:29:02;;;;;;;3.40;3.10;;;8.40;88.00;;;;;;5029523;28;20223;-40
2022/04/17 05:31:29;;;;;;;3.97;3.30;;;8.50;87.30;;;;;;5029145;28;20873;-35
2022/04/17 05:33:55;;;;;;;3.97;3.40;;;8.70;87.50;;;;;;5029339;28;20661;-34
2022/04/17 05:36:21;;;;;;;4.70;3.20;;;8.50;86.30;;;;;;5028202;28;20433;-38
2022/04/17 05:38:47;;;;;;;3.60;3.00;;;8.70;86.50;;;;;;5024754;28;20473;-40
2022/04/17 05:41:14;;;;;;;3.43;2.97;;;8.60;87.20;;;;;;5021757;28;20432;-35
2022/04/17 05:43:40;;;;;;;3.80;3.10;;;8.80;86.00;;;;;;5029416;28;20429;-36
2022/04/17 05:46:05;;;;;;;6.20;3.40;;;8.90;85.60;;;;;;5029267;28;20417;-37
2022/04/17 05:48:32;;;;;;;6.77;3.10;;;8.90;85.50;;;;;;5029163;28;20479;-38
2022/04/17 05:50:58;;;;;;;3.77;3.33;;;9.00;84.20;;;;;;5028583;28;20600;-38
2022/04/17 05:53:24;;;;;;;4.90;3.17;;;9.50;84.90;;;;;;5029356;28;20516;-40
2022/04/17 05:55:50;;;;;;;3.30;3.00;;;9.50;83.60;;;;;;5019939;28;20579;-40
2022/04/17 05:58:15;;;;;;;3.47;2.97;;;9.60;82.10;;;;;;5029211;28;20209;-41
2022/04/17 06:00:42;;;;;;;2.60;2.40;;;9.70;81.50;;;;;;5028290;28;20221;-38
2022/04/17 06:03:09;;;;;;;3.20;2.80;;;9.80;81.20;;;;;;5029216;28;20771;-40
2022/04/17 06:05:34;;;;;;;4.90;2.83;;;10.00;80.20;;;;;;5029111;28;20433;-39
2022/04/17 06:08:00;;;;;;;2.60;2.40;;;10.20;79.50;;;;;;5029291;28;20440;-37
2022/04/17 06:10:26;;;;;;;3.33;2.90;;;10.30;78.60;;;;;;5019176;28;20910;-40
2022/04/17 06:12:52;;;;;;;4.33;2.63;;;10.70;78.50;;;;;;5028841;28;20236;-35
2022/04/17 06:15:17;;;;;;;3.27;2.97;;;10.80;78.30;;;;;;5027446;28;20199;-41
2022/04/17 06:17:43;;;;;;;5.83;3.50;;;10.90;76.80;;;;;;5028881;28;20192;-40
2022/04/17 06:20:12;;;;;;;2.87;2.50;;;10.90;76.30;;;;;;5026966;28;20241;-40
2022/04/17 06:22:38;;;;;;;3.53;2.83;;;11.10;76.00;;;;;;5027400;28;20417;-38
2022/04/17 06:25:08;;;;;;;3.10;2.80;;;11.40;76.10;;;;;;5018585;28;20483;-41
2022/04/17 06:27:41;;;;;;;3.37;3.07;;;11.50;75.50;;;;;;5024018;28;20484;-35
2022/04/17 06:30:11;;;;;;;5.03;3.40;;;11.60;74.60;;;;;;5028023;28;20429;-41
2022/04/17 06:32:41;;;;;;;3.03;2.60;;;11.70;74.80;;;;;;5032125;28;20830;-38
2022/04/17 06:35:09;;;;;;;3.30;2.67;;;11.80;73.90;;;;;;5033062;28;20503;-38
2022/04/17 06:37:55;;;;;;;4.23;2.47;;;11.70;72.70;;;;;;5031386;28;20436;-40
2022/04/17 06:40:23;;;;;;;4.63;3.20;;;11.70;73.90;;;;;;5019676;28;20480;-39
2022/04/17 06:42:50;;;;;;;4.90;3.27;;;11.80;73.10;;;;;;5031949;28;20413;-41
2022/04/17 06:45:17;;;;;;;3.50;3.20;;;11.90;72.50;;;;;;5032653;28;20936;-37
2022/04/17 06:47:44;;;;;;;3.07;2.77;;;12.00;72.40;;;;;;5032501;28;20420;-41
2022/04/17 06:50:10;;;;;;;4.43;3.30;;;12.00;72.90;;;;;;5032066;28;20805;-40
2022/04/17 06:52:36;;;;;;;2.70;2.50;;;12.20;72.70;;;;;;5019317;28;20435;-37
2022/04/17 06:55:04;;;;;;;2.50;2.30;;;12.40;71.30;;;;;;5024102;28;20441;-36
2022/04/17 06:57:31;;;;;;;4.40;3.10;;;12.40;71.70;;;;;;5032443;28;20194;-40
2022/04/17 06:59:57;;;;;;;3.03;2.73;;;12.60;71.70;;;;;;5031830;28;20465;-40
2022/04/17 07:02:24;;;;;;;2.67;2.40;;;12.70;70.20;;;;;;5029072;28;20429;-39
2022/04/17 07:04:50;;;;;;;3.00;2.80;;;12.80;69.10;;;;;;5031134;28;20432;-39
2022/04/17 07:07:15;;;;;;;3.40;2.97;;;12.80;69.10;;;;;;5032346;28;20409;-40
2022/04/17 07:09:41;;;;;;;2.90;2.70;;;12.90;69.10;;;;;;5023873;28;20195;-41
2022/04/17 07:12:07;;;;;;;2.90;2.70;;;12.90;66.70;;;;;;5025961;28;20920;-40
2022/04/17 07:14:33;;;;;;;3.30;2.43;;;12.70;66.70;;;;;;5031256;28;20267;-35
2022/04/17 07:16:58;;;;;;;3.27;2.93;;;12.60;68.10;;;;;;5029910;28;20277;-37
2022/04/17 07:19:24;;;;;;;2.73;2.53;;;12.70;69.60;;;;;;5021100;28;20221;-39
2022/04/17 07:21:50;;;;;;;2.63;2.43;;;12.80;69.90;;;;;;5030165;28;20190;-36
2022/04/17 07:24:16;;;;;;;2.77;2.57;;;12.80;67.60;;;;;;5029029;28;20178;-39
2022/04/17 07:26:42;;;;;;;3.40;2.90;;;12.80;67.80;;;;;;5023672;28;21907;-40
2022/04/17 07:29:08;;;;;;;3.27;2.93;;;12.70;67.80;;;;;;5030123;28;20186;-38
2022/04/17 07:31:34;;;;;;;4.90;3.17;;;12.70;67.50;;;;;;5028974;28;20182;-37
2022/04/17 07:34:00;;;;;;;2.80;2.60;;;12.60;68.00;;;;;;5030760;28;20194;-35
2022/04/17 07:36:25;;;;;;;2.90;2.60;;;12.60;68.50;;;;;;5029330;28;20448;-40
2022/04/17 07:38:51;;;;;;;4.90;3.10;;;12.70;67.50;;;;;;5030756;28;20210;-38
2022/04/17 07:41:17;;;;;;;4.60;2.43;;;12.60;67.70;;;;;;5030129;28;20186;-38
2022/04/17 07:43:43;;;;;;;5.40;2.23;;;12.50;67.60;;;;;;5042362;28;20420;-38
2022/04/17 07:46:09;;;;;;;2.83;2.37;;;12.50;68.20;;;;;;5050466;28;20669;-40
2022/04/17 07:48:35;;;;;;;2.77;2.50;;;12.50;69.60;;;;;;5043869;28;20194;-40
2022/04/17 07:51:01;;;;;;;2.97;2.53;;;12.60;69.60;;;;;;5050017;28;20427;-41
2022/04/17 07:53:26;;;;;;;2.40;2.13;;;12.60;68.90;;;;;;5049789;28;20186;-39
2022/04/17 07:55:52;;;;;;;2.60;2.27;;;12.70;69.70;;;;;;5021393;28;20178;-41
2022/04/17 08:00:59;;;;;;;3.07;2.37;;;12.80;69.30;;;;;;5027927;28;20183;-40
2022/04/17 08:06:07;;;;;;;3.83;2.50;;;12.80;67.60;;;;;;5030332;28;20807;-39
2022/04/17 08:08:34;;;;;;;2.93;2.40;;;12.80;65.70;;;;;;5030766;28;20425;-41
2022/04/17 08:11:00;;;;;;;3.60;2.20;;;12.80;67.20;;;;;;5020787;28;20946;-38
2022/04/17 08:13:26;;;;;;;2.97;2.57;;;12.70;66.50;;;;;;5030529;28;20413;-40
2022/04/17 08:15:52;;;;;;;2.60;2.40;;;12.60;67.90;;;;;;5030053;28;20183;-38
2022/04/17 08:18:18;;;;;;;2.90;2.70;;;12.60;69.40;;;;;;5030297;28;20848;-39
2022/04/17 08:20:44;;;;;;;2.60;2.40;;;12.70;66.90;;;;;;5029688;28;20749;-40
2022/04/17 08:23:10;;;;;;;2.73;2.53;;;12.80;65.70;;;;;;5030105;28;20417;-39
2022/04/17 08:25:37;;;;;;;4.97;2.40;;;12.70;67.10;;;;;;5023347;28;20430;-37
2022/04/17 08:28:03;;;;;;;3.20;2.90;;;12.60;66.10;;;;;;5028652;28;20485;-39
2022/04/17 08:30:31;;;;;;;4.83;2.80;;;12.70;68.00;;;;;;5023968;28;20421;-41
2022/04/17 08:32:58;;;;;;;3.93;2.63;;;12.80;66.70;;;;;;5028126;28;20421;-39
2022/04/17 08:35:24;;;;;;;2.63;2.43;;;12.90;66.50;;;;;;5029883;28;20435;-37
2022/04/17 08:37:52;;;;;;;3.00;2.40;;;13.00;67.90;;;;;;5029832;28;20925;-39
2022/04/17 08:40:18;;;;;;;4.33;2.80;;;13.10;67.80;;;;;;5022875;28;20203;-41
2022/04/17 08:42:44;;;;;;;2.73;2.23;;;13.20;68.30;;;;;;5026376;28;20423;-41
2022/04/17 08:45:12;;;;;;;4.90;2.80;;;13.20;67.10;;;;;;5029854;28;20833;-38
2022/04/17 08:47:39;;;;;;;5.47;2.20;;;13.30;66.20;;;;;;5029435;28;20508;-38
2022/04/17 08:50:15;;;;;;;2.70;2.50;;;13.20;64.50;;;;;;5029309;28;20902;-35
2022/04/17 08:52:50;;;;;;;2.40;2.20;;;13.30;65.70;;;;;;5029661;28;20432;-39
2022/04/17 08:55:16;;;;;;;3.17;2.30;;;13.30;64.80;;;;;;5022257;28;20433;-40
2022/04/17 08:57:43;;;;;;;2.33;2.13;;;13.30;65.00;;;;;;5022700;28;20532;-37
2022/04/17 09:00:11;;;;;;;4.63;2.57;;;13.40;63.00;;;;;;5028407;28;20461;-40
2022/04/17 09:02:37;;;;;;;2.23;1.90;;;13.50;61.80;;;;;;5029320;28;21749;-41
2022/04/17 09:05:05;;;;;;;2.83;2.63;;;13.60;63.20;;;;;;5027631;28;20428;-39
2022/04/17 09:07:40;;;;;;;2.63;2.20;;;13.60;63.40;;;;;;5029130;28;20427;-40
2022/04/17 09:10:07;;;;;;;2.80;2.03;;;13.70;61.50;;;;;;5026697;28;20427;-40
2022/04/17 09:12:33;;;;;;;2.37;2.17;;;13.70;62.20;;;;;;5027751;28;20425;-39
2022/04/17 09:14:58;;;;;;;3.33;2.23;;;13.80;63.50;;;;;;5030991;28;20970;-38
2022/04/17 09:17:32;;;;;;;2.63;2.43;;;14.00;62.90;;;;;;5029245;28;20413;-37
2022/04/17 09:19:58;;;;;;;2.40;2.20;;;14.10;62.10;;;;;;5034748;28;20263;-41
2022/04/17 09:22:25;;;;;;;2.30;2.10;;;14.10;60.20;;;;;;5027363;28;20504;-35
2022/04/17 09:24:51;;;;;;;3.13;1.90;;;14.20;62.70;;;;;;5026851;28;20483;-41
2022/04/17 09:27:17;;;;;;;1.93;1.70;;;14.30;61.20;;;;;;5014147;28;20955;-41
2022/04/17 09:29:43;;;;;;;1.97;1.70;;;14.50;60.20;;;;;;5027608;28;20425;-40
2022/04/17 09:32:11;;;;;;;1.90;1.80;;;14.70;61.60;;;;;;5028131;28;20191;-38
2022/04/17 09:34:55;;;;;;;3.57;1.80;;;15.00;59.70;;;;;;5027136;28;20243;-38
2022/04/17 09:37:23;;;;;;;3.03;2.00;;;15.20;58.30;;;;;;5028795;28;20421;-38
2022/04/17 09:39:52;;;;;;;3.90;2.13;;;15.40;57.50;;;;;;5028240;28;20888;-41
2022/04/17 09:42:26;;;;;;;2.70;2.10;;;15.50;57.80;;;;;;5016735;28;20428;-39
2022/04/17 09:44:55;;;;;;;3.47;1.97;;;15.60;56.40;;;;;;5028161;28;20421;-39
2022/04/17 09:47:22;;;;;;;2.30;1.90;;;15.60;56.30;;;;;;5028051;28;21015;-40
2022/04/17 09:49:57;;;;;;;2.30;2.10;;;15.60;57.30;;;;;;5028959;28;20429;-41
2022/04/17 09:52:31;;;;;;;2.07;1.93;;;15.70;55.30;;;;;;5029182;28;20617;-37
2022/04/17 09:55:03;;;;;;;2.40;2.13;;;15.70;55.10;;;;;;5029435;28;20976;-39
2022/04/17 09:57:31;;;;;;;2.00;1.90;;;15.60;55.80;;;;;;5018477;28;20471;-39
2022/04/17 10:00:07;;;;;;;2.30;2.10;;;15.80;55.70;;;;;;5027214;28;20874;-38
2022/04/17 10:02:33;;;;;;;2.30;2.10;;;16.00;55.40;;;;;;5014343;28;20507;-39
2022/04/17 10:05:03;;;;;;;2.20;2.10;;;16.20;54.70;;;;;;5027524;28;20842;-40
2022/04/17 10:07:31;;;;;;;2.20;2.00;;;16.30;53.10;;;;;;5027650;28;20420;-37
2022/04/17 10:09:57;;;;;;;2.00;1.90;;;16.40;53.60;;;;;;5028468;28;20421;-39
2022/04/17 10:12:24;;;;;;;4.40;2.20;;;16.60;54.60;;;;;;5022320;28;20441;-38
2022/04/17 10:14:52;;;;;;;3.20;2.83;;;16.70;55.20;;;;;;5022489;28;20179;-41
2022/04/17 10:17:20;;;;;;;3.20;2.00;;;16.70;55.80;;;;;;5028715;28;20954;-41
2022/04/17 10:19:50;;;;;;;2.10;1.90;;;16.90;56.90;;;;;;5027235;28;20501;-41
2022/04/17 10:22:21;;;;;;;2.43;2.23;;;17.00;56.40;;;;;;5028903;28;20422;-39
2022/04/17 10:24:54;;;;;;;1.70;1.60;;;17.10;54.10;;;;;;5027175;28;20429;-41
2022/04/17 10:27:26;;;;;;;2.53;2.33;;;17.20;55.10;;;;;;5023743;28;20526;-40
2022/04/17 10:30:07;;;;;;;3.10;2.20;;;17.10;54.80;;;;;;5028553;28;20432;-40
2022/04/17 10:32:35;;;;;;;2.37;1.93;;;17.10;53.70;;;;;;5027013;28;20456;-41
2022/04/17 10:35:13;;;;;;;1.90;1.63;;;17.30;54.10;;;;;;5025620;28;20421;-37
2022/04/17 10:38:06;;;;;;;1.90;1.43;;;17.20;51.70;;;;;;5028026;28;20444;-41
2022/04/17 10:40:33;;;;;;;1.90;1.60;;;17.30;53.30;;;;;;5024403;28;20983;-40
2022/04/17 10:43:03;;;;;;;3.40;1.63;;;17.50;54.70;;;;;;5023918;28;20924;-39
2022/04/17 10:45:31;;;;;;;1.60;1.50;;;17.60;52.60;;;;;;5027968;28;20772;-41
2022/04/17 10:48:12;;;;;;;3.57;1.97;;;17.80;50.20;;;;;;5030141;28;20417;-41
2022/04/17 10:50:51;;;;;;;2.33;1.80;;;17.70;49.80;;;;;;5024735;28;20428;-38
2022/04/17 10:53:24;;;;;;;2.40;1.63;;;17.60;50.20;;;;;;5028141;28;20463;-39
2022/04/17 10:56:10;;;;;;;2.87;1.63;;;17.70;51.80;;;;;;5012727;28;21063;-40
2022/04/17 10:58:37;;;;;;;2.40;1.70;;;17.80;53.00;;;;;;5024944;28;20452;-39
2022/04/17 11:01:04;;;;;;;1.73;1.50;;;18.00;53.20;;;;;;5023234;28;20429;-38
2022/04/17 11:03:34;;;;;;;1.63;1.50;;;18.10;49.90;;;;;;5025641;28;20436;-41
2022/04/17 11:06:32;;;;;;;1.90;1.60;;;18.10;50.90;;;;;;5026602;28;20417;-37
2022/04/17 11:09:11;;;;;;;2.10;1.50;;;18.00;47.20;;;;;;5030563;28;20444;-40
2022/04/17 11:11:40;;;;;;;2.00;1.80;;;18.00;48.40;;;;;;5023298;28;20437;-37
2022/04/17 11:14:19;;;;;;;2.60;1.87;;;17.90;47.30;;;;;;5027947;28;20504;-40
2022/04/17 11:17:12;;;;;;;2.07;1.63;;;18.00;51.10;;;;;;5029100;28;20429;-36
2022/04/17 11:19:39;;;;;;;2.27;1.20;;;18.20;49.40;;;;;;5028019;28;20888;-41
2022/04/17 11:22:08;;;;;;;2.37;1.60;;;18.30;49.00;;;;;;5031170;28;20421;-35
2022/04/17 11:24:55;;;;;;;2.40;1.73;;;18.40;47.40;;;;;;5031359;28;20436;-39
2022/04/17 11:27:42;;;;;;;2.67;1.70;;;18.40;49.10;;;;;;5025308;28;21421;-39
2022/04/17 11:30:30;;;;;;;1.53;1.43;;;18.40;50.00;;;;;;5031562;28;20417;-39
2022/04/17 11:32:59;;;;;;;3.50;1.53;;;18.50;50.30;;;;;;5032650;28;20433;-37
2022/04/17 11:35:27;;;;;;;1.60;1.50;;;18.60;50.40;;;;;;5031261;28;20421;-40
2022/04/17 11:37:55;;;;;;;1.87;1.53;;;18.70;48.30;;;;;;5030901;28;20437;-39
2022/04/17 11:40:21;;;;;;;1.80;1.30;;;18.70;48.80;;;;;;5037470;28;20477;-40
2022/04/17 11:42:49;;;;;;;1.87;1.67;;;18.80;48.70;;;;;;5025315;28;20769;-38
2022/04/17 11:45:27;;;;;;;1.47;1.23;;;18.80;49.40;;;;;;5038010;28;21147;-42
2022/04/17 11:47:55;;;;;;;2.40;1.60;;;18.80;47.80;;;;;;5031710;28;20424;-41
2022/04/17 11:50:26;;;;;;;1.73;1.40;;;18.90;47.60;;;;;;5032096;28;20425;-36
2022/04/17 11:52:53;;;;;;;2.60;1.43;;;18.90;47.60;;;;;;5030878;28;20447;-40
2022/04/17 11:55:35;;;;;;;2.53;1.60;;;18.90;47.50;;;;;;5028021;28;20428;-41
2022/04/17 11:58:01;;;;;;;2.37;1.43;;;18.90;47.70;;;;;;5022901;28;20469;-39
2022/04/17 12:00:29;;;;;;;2.10;1.63;;;18.90;49.50;;;;;;5025278;28;20473;-42
2022/04/17 12:03:03;;;;;;;1.33;1.23;;;19.00;50.30;;;;;;5028864;28;20435;-41
2022/04/17 12:05:30;;;;;;;1.80;1.37;;;19.10;47.00;;;;;;5022342;28;20435;-41
2022/04/17 12:08:09;;;;;;;2.13;1.70;;;19.10;46.10;;;;;;5022951;28;20437;-41
2022/04/17 12:10:40;;;;;;;2.30;1.47;;;19.20;49.20;;;;;;5026959;28;20437;-37
2022/04/17 12:13:15;;;;;;;4.50;2.13;;;19.20;48.50;;;;;;5023794;28;20495;-39
2022/04/17 12:15:41;;;;;;;4.50;1.83;;;19.20;48.40;;;;;;5018953;28;20448;-38
2022/04/17 12:18:06;;;;;;;2.10;1.47;;;19.20;50.30;;;;;;5025217;28;20433;-39
2022/04/17 12:20:32;;;;;;;1.87;1.77;;;19.20;47.00;;;;;;5023457;28;20943;-36
2022/04/17 12:22:58;;;;;;;2.40;1.80;;;19.30;46.90;;;;;;5021622;28;20277;-40
2022/04/17 12:25:25;;;;;;;2.00;1.57;;;19.20;46.90;;;;;;5019512;28;20453;-42
2022/04/17 12:27:53;;;;;;;1.93;1.67;;;19.10;46.40;;;;;;5025222;28;20183;-37
2022/04/17 12:30:25;;;;;;;1.93;1.60;;;19.00;46.30;;;;;;5026961;28;20485;-38
2022/04/17 12:32:55;;;;;;;2.20;1.37;;;19.10;47.70;;;;;;5031318;28;20754;-40
2022/04/17 12:35:35;;;;;;;1.57;1.30;;;19.20;46.20;;;;;;5025958;28;20860;-38
2022/04/17 12:38:10;;;;;;;2.40;1.80;;;19.20;46.90;;;;;;5024263;28;20445;-36
2022/04/17 12:40:42;;;;;;;2.80;2.30;;;19.30;48.70;;;;;;5026962;28;20468;-40
2022/04/17 12:43:21;;;;;;;2.63;2.03;;;19.30;49.30;;;;;;5024473;28;20520;-38
2022/04/17 12:45:56;;;;;;;3.30;2.40;;;19.40;51.00;;;;;;5023926;28;20464;-37
2022/04/17 12:48:28;;;;;;;2.33;2.13;;;19.50;51.30;;;;;;5027249;28;20512;-42
2022/04/17 12:51:04;;;;;;;2.70;2.30;;;19.60;50.20;;;;;;5022595;28;20917;-41
2022/04/17 12:53:35;;;;;;;2.50;2.27;;;19.60;49.20;;;;;;5019668;28;20480;-39
2022/04/17 12:56:01;;;;;;;2.93;2.67;;;19.50;49.60;;;;;;5030433;28;20460;-40
2022/04/17 12:58:27;;;;;;;2.93;2.40;;;19.40;47.70;;;;;;5028816;28;20452;-34
2022/04/17 13:00:59;;;;;;;3.70;3.07;;;19.40;50.90;;;;;;5023698;28;20473;-40
2022/04/17 13:03:35;;;;;;;5.17;2.83;;;19.50;50.00;;;;;;5022725;28;20488;-38
2022/04/17 13:06:03;;;;;;;3.97;2.97;;;19.50;49.50;;;;;;5017702;28;20471;-38
2022/04/17 13:08:29;;;;;;;3.03;2.73;;;19.50;51.90;;;;;;5024051;28;20444;-38
2022/04/17 13:10:55;;;;;;;3.10;2.80;;;19.60;51.70;;;;;;5021625;28;20995;-38
2022/04/17 13:13:39;;;;;;;4.57;2.90;;;19.70;51.70;;;;;;5020017;28;20442;-41
2022/04/17 13:16:06;;;;;;;2.80;2.60;;;19.60;50.40;;;;;;5021983;28;20430;-41